sensor_id;sensor_type;location;lat;lon;timestamp;P1;durP1;ratioP1;P2;durP2;ratioP2
11228;SDS011;5671;47.936;8.716;2023-05-29T00:00:57;8.77;;;4.03;;
11228;SDS011;5671;47.936;8.716;2023-05-29T00:03:24;4.80;;;3.63;;
11228;SDS011;5671;47.936;8.716;2023-05-29T00:05:51;4.47;;;3.17;;
11228;SDS011;5671;47.936;8.716;2023-05-29T00:08:20;6.53;;;3.50;;
11228;SDS011;5671;47.936;8.716;2023-05-29T00:10:49;4.77;;;3.50;;
11228;SDS011;5671;47.936;8.716;2023-05-29T00:13:16;7.43;;;3.60;;
11228;SDS011;5671;47.936;8.716;2023-05-29T00:15:43;5.07;;;3.70;;
11228;SDS011;5671;47.936;8.716;2023-05-29T00:18:10;5.80;;;3.37;;
11228;SDS011;5671;47.936;8.716;2023-05-29T00:20:36;4.70;;;3.40;;
11228;SDS011;5671;47.936;8.716;2023-05-29T00:23:03;4.23;;;3.13;;
11228;SDS011;5671;47.936;8.716;2023-05-29T00:25:32;3.93;;;2.90;;
11228;SDS011;5671;47.936;8.716;2023-05-29T00:27:59;4.73;;;3.43;;
11228;SDS011;5671;47.936;8.716;2023-05-29T00:30:26;5.07;;;3.47;;
11228;SDS011;5671;47.936;8.716;2023-05-29T00:32:53;6.33;;;3.50;;
11228;SDS011;5671;47.936;8.716;2023-05-29T00:35:19;5.87;;;3.63;;
11228;SDS011;5671;47.936;8.716;2023-05-29T00:37:46;5.40;;;3.20;;
11228;SDS011;5671;47.936;8.716;2023-05-29T00:40:13;4.77;;;3.07;;
11228;SDS011;5671;47.936;8.716;2023-05-29T00:42:41;3.90;;;3.20;;
11228;SDS011;5671;47.936;8.716;2023-05-29T00:45:08;4.70;;;3.30;;
11228;SDS011;5671;47.936;8.716;2023-05-29T00:47:36;4.50;;;3.27;;
11228;SDS011;5671;47.936;8.716;2023-05-29T00:50:03;6.10;;;3.60;;
11228;SDS011;5671;47.936;8.716;2023-05-29T00:52:32;4.10;;;3.03;;
11228;SDS011;5671;47.936;8.716;2023-05-29T00:54:59;5.43;;;3.40;;
11228;SDS011;5671;47.936;8.716;2023-05-29T00:57:27;7.20;;;3.30;;
11228;SDS011;5671;47.936;8.716;2023-05-29T00:59:56;5.43;;;3.80;;
11228;SDS011;5671;47.936;8.716;2023-05-29T01:02:24;5.60;;;3.63;;
11228;SDS011;5671;47.936;8.716;2023-05-29T01:04:52;3.87;;;3.10;;
11228;SDS011;5671;47.936;8.716;2023-05-29T01:07:19;4.87;;;3.33;;
11228;SDS011;5671;47.936;8.716;2023-05-29T01:09:46;5.53;;;3.50;;
11228;SDS011;5671;47.936;8.716;2023-05-29T01:12:19;6.77;;;3.70;;
11228;SDS011;5671;47.936;8.716;2023-05-29T01:14:59;4.73;;;3.23;;
11228;SDS011;5671;47.936;8.716;2023-05-29T01:17:37;4.37;;;3.20;;
11228;SDS011;5671;47.936;8.716;2023-05-29T01:20:13;5.13;;;3.40;;
11228;SDS011;5671;47.936;8.716;2023-05-29T01:23:00;5.50;;;3.40;;
11228;SDS011;5671;47.936;8.716;2023-05-29T01:25:40;5.30;;;3.40;;
11228;SDS011;5671;47.936;8.716;2023-05-29T01:28:19;5.70;;;3.73;;
11228;SDS011;5671;47.936;8.716;2023-05-29T01:30:48;5.77;;;3.53;;
11228;SDS011;5671;47.936;8.716;2023-05-29T01:33:16;7.00;;;3.47;;
11228;SDS011;5671;47.936;8.716;2023-05-29T01:35:43;3.97;;;3.03;;
11228;SDS011;5671;47.936;8.716;2023-05-29T01:38:10;4.90;;;3.50;;
11228;SDS011;5671;47.936;8.716;2023-05-29T01:40:37;3.70;;;3.03;;
11228;SDS011;5671;47.936;8.716;2023-05-29T01:43:04;4.13;;;3.27;;
11228;SDS011;5671;47.936;8.716;2023-05-29T01:45:33;4.77;;;3.73;;
11228;SDS011;5671;47.936;8.716;2023-05-29T01:48:00;5.87;;;3.70;;
11228;SDS011;5671;47.936;8.716;2023-05-29T01:50:27;5.33;;;3.17;;
11228;SDS011;5671;47.936;8.716;2023-05-29T01:52:54;3.80;;;3.03;;
11228;SDS011;5671;47.936;8.716;2023-05-29T01:55:21;5.03;;;3.27;;
11228;SDS011;5671;47.936;8.716;2023-05-29T01:57:48;4.27;;;3.27;;
11228;SDS011;5671;47.936;8.716;2023-05-29T02:00:17;5.37;;;3.13;;
11228;SDS011;5671;47.936;8.716;2023-05-29T02:02:45;5.17;;;3.80;;
11228;SDS011;5671;47.936;8.716;2023-05-29T02:05:12;6.00;;;3.80;;
11228;SDS011;5671;47.936;8.716;2023-05-29T02:07:39;5.03;;;3.30;;
11228;SDS011;5671;47.936;8.716;2023-05-29T02:10:06;3.60;;;3.20;;
11228;SDS011;5671;47.936;8.716;2023-05-29T02:12:33;5.37;;;3.57;;
11228;SDS011;5671;47.936;8.716;2023-05-29T02:14:59;4.63;;;3.60;;
11228;SDS011;5671;47.936;8.716;2023-05-29T02:17:26;3.97;;;3.50;;
11228;SDS011;5671;47.936;8.716;2023-05-29T02:19:54;5.40;;;3.70;;
11228;SDS011;5671;47.936;8.716;2023-05-29T02:22:21;5.73;;;3.50;;
11228;SDS011;5671;47.936;8.716;2023-05-29T02:24:48;5.47;;;3.33;;
11228;SDS011;5671;47.936;8.716;2023-05-29T02:27:15;3.87;;;3.27;;
11228;SDS011;5671;47.936;8.716;2023-05-29T02:29:41;2.87;;;2.57;;
11228;SDS011;5671;47.936;8.716;2023-05-29T02:32:08;4.57;;;3.20;;
11228;SDS011;5671;47.936;8.716;2023-05-29T02:34:35;7.10;;;3.30;;
11228;SDS011;5671;47.936;8.716;2023-05-29T02:37:03;3.80;;;3.13;;
11228;SDS011;5671;47.936;8.716;2023-05-29T02:39:30;5.40;;;3.67;;
11228;SDS011;5671;47.936;8.716;2023-05-29T02:41:57;7.20;;;3.60;;
11228;SDS011;5671;47.936;8.716;2023-05-29T02:44:24;4.63;;;3.13;;
11228;SDS011;5671;47.936;8.716;2023-05-29T02:46:51;7.37;;;3.80;;
11228;SDS011;5671;47.936;8.716;2023-05-29T02:49:17;5.30;;;3.50;;
11228;SDS011;5671;47.936;8.716;2023-05-29T02:51:44;5.03;;;3.60;;
11228;SDS011;5671;47.936;8.716;2023-05-29T02:54:12;5.23;;;3.63;;
11228;SDS011;5671;47.936;8.716;2023-05-29T02:56:39;5.93;;;3.90;;
11228;SDS011;5671;47.936;8.716;2023-05-29T02:59:06;7.03;;;3.50;;
11228;SDS011;5671;47.936;8.716;2023-05-29T03:01:33;4.63;;;3.43;;
11228;SDS011;5671;47.936;8.716;2023-05-29T03:03:59;4.80;;;3.40;;
11228;SDS011;5671;47.936;8.716;2023-05-29T03:06:26;6.17;;;3.27;;
11228;SDS011;5671;47.936;8.716;2023-05-29T03:08:53;4.40;;;3.80;;
11228;SDS011;5671;47.936;8.716;2023-05-29T03:11:21;5.67;;;3.40;;
11228;SDS011;5671;47.936;8.716;2023-05-29T03:13:49;6.73;;;3.17;;
11228;SDS011;5671;47.936;8.716;2023-05-29T03:16:16;4.73;;;3.57;;
11228;SDS011;5671;47.936;8.716;2023-05-29T03:18:43;9.33;;;4.30;;
11228;SDS011;5671;47.936;8.716;2023-05-29T03:21:10;5.37;;;3.50;;
11228;SDS011;5671;47.936;8.716;2023-05-29T03:23:36;4.40;;;3.23;;
11228;SDS011;5671;47.936;8.716;2023-05-29T03:26:04;6.33;;;3.60;;
11228;SDS011;5671;47.936;8.716;2023-05-29T03:28:32;4.93;;;3.30;;
11228;SDS011;5671;47.936;8.716;2023-05-29T03:30:59;5.10;;;3.77;;
11228;SDS011;5671;47.936;8.716;2023-05-29T03:33:26;5.83;;;3.50;;
11228;SDS011;5671;47.936;8.716;2023-05-29T03:35:53;4.77;;;3.33;;
11228;SDS011;5671;47.936;8.716;2023-05-29T03:38:20;4.80;;;3.20;;
11228;SDS011;5671;47.936;8.716;2023-05-29T03:40:48;6.27;;;3.73;;
11228;SDS011;5671;47.936;8.716;2023-05-29T03:43:15;5.37;;;3.47;;
11228;SDS011;5671;47.936;8.716;2023-05-29T03:45:43;5.10;;;3.87;;
11228;SDS011;5671;47.936;8.716;2023-05-29T03:48:10;4.77;;;3.30;;
11228;SDS011;5671;47.936;8.716;2023-05-29T03:50:37;4.63;;;3.50;;
11228;SDS011;5671;47.936;8.716;2023-05-29T03:53:03;5.20;;;3.73;;
11228;SDS011;5671;47.936;8.716;2023-05-29T03:55:31;5.43;;;3.50;;
11228;SDS011;5671;47.936;8.716;2023-05-29T03:57:58;4.93;;;3.80;;
11228;SDS011;5671;47.936;8.716;2023-05-29T04:00:24;4.83;;;3.67;;
11228;SDS011;5671;47.936;8.716;2023-05-29T04:02:52;4.73;;;3.63;;
11228;SDS011;5671;47.936;8.716;2023-05-29T04:05:21;5.57;;;3.33;;
11228;SDS011;5671;47.936;8.716;2023-05-29T04:07:47;5.33;;;3.57;;
11228;SDS011;5671;47.936;8.716;2023-05-29T04:10:14;5.30;;;3.73;;
11228;SDS011;5671;47.936;8.716;2023-05-29T04:12:41;4.87;;;3.43;;
11228;SDS011;5671;47.936;8.716;2023-05-29T04:15:08;4.67;;;3.57;;
11228;SDS011;5671;47.936;8.716;2023-05-29T04:17:35;4.20;;;3.27;;
11228;SDS011;5671;47.936;8.716;2023-05-29T04:20:04;5.47;;;3.27;;
11228;SDS011;5671;47.936;8.716;2023-05-29T04:22:33;4.23;;;3.33;;
11228;SDS011;5671;47.936;8.716;2023-05-29T04:25:00;5.07;;;3.23;;
11228;SDS011;5671;47.936;8.716;2023-05-29T04:27:28;4.63;;;3.50;;
11228;SDS011;5671;47.936;8.716;2023-05-29T04:29:57;4.33;;;3.33;;
11228;SDS011;5671;47.936;8.716;2023-05-29T04:32:24;5.23;;;3.73;;
11228;SDS011;5671;47.936;8.716;2023-05-29T04:34:51;4.97;;;3.20;;
11228;SDS011;5671;47.936;8.716;2023-05-29T04:37:19;5.97;;;3.13;;
11228;SDS011;5671;47.936;8.716;2023-05-29T04:39:54;3.93;;;3.43;;
11228;SDS011;5671;47.936;8.716;2023-05-29T04:42:21;4.97;;;3.80;;
11228;SDS011;5671;47.936;8.716;2023-05-29T04:44:49;4.60;;;3.13;;
11228;SDS011;5671;47.936;8.716;2023-05-29T04:47:17;3.57;;;3.20;;
11228;SDS011;5671;47.936;8.716;2023-05-29T04:49:44;8.23;;;3.03;;
11228;SDS011;5671;47.936;8.716;2023-05-29T04:52:13;4.60;;;3.07;;
11228;SDS011;5671;47.936;8.716;2023-05-29T04:54:42;5.10;;;3.70;;
11228;SDS011;5671;47.936;8.716;2023-05-29T04:57:09;5.50;;;3.63;;
11228;SDS011;5671;47.936;8.716;2023-05-29T04:59:36;8.87;;;3.77;;
11228;SDS011;5671;47.936;8.716;2023-05-29T05:02:03;5.90;;;3.50;;
11228;SDS011;5671;47.936;8.716;2023-05-29T05:04:31;4.90;;;3.47;;
11228;SDS011;5671;47.936;8.716;2023-05-29T05:06:58;5.80;;;3.30;;
11228;SDS011;5671;47.936;8.716;2023-05-29T05:09:25;5.37;;;3.77;;
11228;SDS011;5671;47.936;8.716;2023-05-29T05:11:53;6.40;;;3.70;;
11228;SDS011;5671;47.936;8.716;2023-05-29T05:14:21;6.80;;;3.70;;
11228;SDS011;5671;47.936;8.716;2023-05-29T05:16:48;4.57;;;3.87;;
11228;SDS011;5671;47.936;8.716;2023-05-29T05:19:16;5.50;;;3.30;;
11228;SDS011;5671;47.936;8.716;2023-05-29T05:21:42;7.17;;;3.70;;
11228;SDS011;5671;47.936;8.716;2023-05-29T05:24:09;6.50;;;4.10;;
11228;SDS011;5671;47.936;8.716;2023-05-29T05:26:36;5.53;;;4.30;;
11228;SDS011;5671;47.936;8.716;2023-05-29T05:29:04;7.10;;;3.97;;
11228;SDS011;5671;47.936;8.716;2023-05-29T05:31:31;6.37;;;4.10;;
11228;SDS011;5671;47.936;8.716;2023-05-29T05:33:58;5.07;;;4.13;;
11228;SDS011;5671;47.936;8.716;2023-05-29T05:36:25;4.83;;;3.60;;
11228;SDS011;5671;47.936;8.716;2023-05-29T05:38:52;8.87;;;4.03;;
11228;SDS011;5671;47.936;8.716;2023-05-29T05:41:18;6.07;;;4.33;;
11228;SDS011;5671;47.936;8.716;2023-05-29T05:43:46;4.27;;;3.57;;
11228;SDS011;5671;47.936;8.716;2023-05-29T05:46:14;5.13;;;3.90;;
11228;SDS011;5671;47.936;8.716;2023-05-29T05:48:42;6.33;;;4.10;;
11228;SDS011;5671;47.936;8.716;2023-05-29T05:51:09;5.63;;;4.07;;
11228;SDS011;5671;47.936;8.716;2023-05-29T05:53:37;5.20;;;3.80;;
11228;SDS011;5671;47.936;8.716;2023-05-29T05:56:03;5.37;;;4.00;;
11228;SDS011;5671;47.936;8.716;2023-05-29T05:58:30;4.70;;;3.83;;
11228;SDS011;5671;47.936;8.716;2023-05-29T06:00:57;6.50;;;4.40;;
11228;SDS011;5671;47.936;8.716;2023-05-29T06:03:26;7.20;;;4.00;;
11228;SDS011;5671;47.936;8.716;2023-05-29T06:05:53;7.20;;;4.33;;
11228;SDS011;5671;47.936;8.716;2023-05-29T06:08:22;5.57;;;4.03;;
11228;SDS011;5671;47.936;8.716;2023-05-29T06:10:49;8.30;;;4.10;;
11228;SDS011;5671;47.936;8.716;2023-05-29T06:13:16;6.90;;;4.47;;
11228;SDS011;5671;47.936;8.716;2023-05-29T06:15:43;5.97;;;4.43;;
11228;SDS011;5671;47.936;8.716;2023-05-29T06:18:09;5.17;;;3.97;;
11228;SDS011;5671;47.936;8.716;2023-05-29T06:20:38;5.07;;;4.00;;
11228;SDS011;5671;47.936;8.716;2023-05-29T06:23:05;6.00;;;4.03;;
11228;SDS011;5671;47.936;8.716;2023-05-29T06:25:32;7.13;;;4.43;;
11228;SDS011;5671;47.936;8.716;2023-05-29T06:27:58;5.07;;;3.90;;
11228;SDS011;5671;47.936;8.716;2023-05-29T06:30:30;7.30;;;3.80;;
11228;SDS011;5671;47.936;8.716;2023-05-29T06:32:58;5.80;;;4.03;;
11228;SDS011;5671;47.936;8.716;2023-05-29T06:35:25;9.17;;;4.13;;
11228;SDS011;5671;47.936;8.716;2023-05-29T06:37:53;6.27;;;4.20;;
11228;SDS011;5671;47.936;8.716;2023-05-29T06:40:20;5.77;;;4.00;;
11228;SDS011;5671;47.936;8.716;2023-05-29T06:42:47;5.47;;;3.70;;
11228;SDS011;5671;47.936;8.716;2023-05-29T06:45:14;6.80;;;4.00;;
11228;SDS011;5671;47.936;8.716;2023-05-29T06:47:45;5.37;;;3.33;;
11228;SDS011;5671;47.936;8.716;2023-05-29T06:50:12;5.47;;;3.63;;
11228;SDS011;5671;47.936;8.716;2023-05-29T06:52:40;4.90;;;3.67;;
11228;SDS011;5671;47.936;8.716;2023-05-29T06:55:08;5.50;;;3.70;;
11228;SDS011;5671;47.936;8.716;2023-05-29T06:57:35;6.03;;;3.50;;
11228;SDS011;5671;47.936;8.716;2023-05-29T07:00:02;6.03;;;3.37;;
11228;SDS011;5671;47.936;8.716;2023-05-29T07:02:32;4.37;;;3.30;;
11228;SDS011;5671;47.936;8.716;2023-05-29T07:05:01;6.40;;;3.60;;
11228;SDS011;5671;47.936;8.716;2023-05-29T07:07:28;6.03;;;3.47;;
11228;SDS011;5671;47.936;8.716;2023-05-29T07:09:55;7.43;;;3.80;;
11228;SDS011;5671;47.936;8.716;2023-05-29T07:12:23;4.43;;;3.73;;
11228;SDS011;5671;47.936;8.716;2023-05-29T07:14:50;6.70;;;4.10;;
11228;SDS011;5671;47.936;8.716;2023-05-29T07:17:17;6.73;;;3.90;;
11228;SDS011;5671;47.936;8.716;2023-05-29T07:19:44;6.83;;;4.33;;
11228;SDS011;5671;47.936;8.716;2023-05-29T07:22:11;6.40;;;3.80;;
11228;SDS011;5671;47.936;8.716;2023-05-29T07:24:38;6.87;;;4.07;;
11228;SDS011;5671;47.936;8.716;2023-05-29T07:27:05;5.53;;;3.90;;
11228;SDS011;5671;47.936;8.716;2023-05-29T07:29:34;6.47;;;4.33;;
11228;SDS011;5671;47.936;8.716;2023-05-29T07:32:01;6.97;;;4.00;;
11228;SDS011;5671;47.936;8.716;2023-05-29T07:34:27;8.67;;;3.90;;
11228;SDS011;5671;47.936;8.716;2023-05-29T07:36:57;6.90;;;4.47;;
11228;SDS011;5671;47.936;8.716;2023-05-29T07:39:26;5.97;;;3.97;;
11228;SDS011;5671;47.936;8.716;2023-05-29T07:41:53;6.07;;;4.30;;
11228;SDS011;5671;47.936;8.716;2023-05-29T07:44:20;9.57;;;4.53;;
11228;SDS011;5671;47.936;8.716;2023-05-29T07:46:48;6.73;;;4.10;;
11228;SDS011;5671;47.936;8.716;2023-05-29T07:49:15;6.07;;;3.90;;
11228;SDS011;5671;47.936;8.716;2023-05-29T07:51:42;5.17;;;3.67;;
11228;SDS011;5671;47.936;8.716;2023-05-29T07:54:12;8.73;;;4.63;;
11228;SDS011;5671;47.936;8.716;2023-05-29T07:56:45;6.33;;;4.27;;
11228;SDS011;5671;47.936;8.716;2023-05-29T07:59:13;4.87;;;4.17;;
11228;SDS011;5671;47.936;8.716;2023-05-29T08:01:40;6.57;;;4.37;;
11228;SDS011;5671;47.936;8.716;2023-05-29T08:04:10;5.77;;;4.03;;
11228;SDS011;5671;47.936;8.716;2023-05-29T08:06:37;7.47;;;4.27;;
11228;SDS011;5671;47.936;8.716;2023-05-29T08:09:07;5.17;;;4.17;;
11228;SDS011;5671;47.936;8.716;2023-05-29T08:11:36;7.53;;;3.87;;
11228;SDS011;5671;47.936;8.716;2023-05-29T08:14:03;7.30;;;4.10;;
11228;SDS011;5671;47.936;8.716;2023-05-29T08:16:30;6.57;;;4.13;;
11228;SDS011;5671;47.936;8.716;2023-05-29T08:18:57;5.53;;;4.20;;
11228;SDS011;5671;47.936;8.716;2023-05-29T08:21:25;5.50;;;4.10;;
11228;SDS011;5671;47.936;8.716;2023-05-29T08:23:52;6.00;;;4.70;;
11228;SDS011;5671;47.936;8.716;2023-05-29T08:26:22;5.83;;;4.37;;
11228;SDS011;5671;47.936;8.716;2023-05-29T08:28:49;5.77;;;4.20;;
11228;SDS011;5671;47.936;8.716;2023-05-29T08:31:16;7.23;;;4.00;;
11228;SDS011;5671;47.936;8.716;2023-05-29T08:33:43;8.43;;;3.93;;
11228;SDS011;5671;47.936;8.716;2023-05-29T08:36:11;8.60;;;4.53;;
11228;SDS011;5671;47.936;8.716;2023-05-29T08:38:39;5.40;;;3.80;;
11228;SDS011;5671;47.936;8.716;2023-05-29T08:41:06;5.93;;;4.30;;
11228;SDS011;5671;47.936;8.716;2023-05-29T08:43:35;4.83;;;4.20;;
11228;SDS011;5671;47.936;8.716;2023-05-29T08:46:17;8.83;;;4.33;;
11228;SDS011;5671;47.936;8.716;2023-05-29T08:48:47;5.60;;;4.33;;
11228;SDS011;5671;47.936;8.716;2023-05-29T08:51:16;8.63;;;4.00;;
11228;SDS011;5671;47.936;8.716;2023-05-29T08:53:58;7.13;;;3.97;;
11228;SDS011;5671;47.936;8.716;2023-05-29T08:56:28;6.10;;;4.17;;
11228;SDS011;5671;47.936;8.716;2023-05-29T08:59:01;6.63;;;4.23;;
11228;SDS011;5671;47.936;8.716;2023-05-29T09:01:36;7.53;;;4.30;;
11228;SDS011;5671;47.936;8.716;2023-05-29T09:04:05;5.17;;;4.33;;
11228;SDS011;5671;47.936;8.716;2023-05-29T09:06:36;6.47;;;4.43;;
11228;SDS011;5671;47.936;8.716;2023-05-29T09:09:16;7.90;;;5.00;;
11228;SDS011;5671;47.936;8.716;2023-05-29T09:11:45;8.00;;;4.50;;
11228;SDS011;5671;47.936;8.716;2023-05-29T09:17:01;5.30;;;4.03;;
11228;SDS011;5671;47.936;8.716;2023-05-29T09:19:28;7.07;;;4.77;;
11228;SDS011;5671;47.936;8.716;2023-05-29T09:22:00;5.73;;;4.93;;
11228;SDS011;5671;47.936;8.716;2023-05-29T09:24:29;5.87;;;4.33;;
11228;SDS011;5671;47.936;8.716;2023-05-29T09:26:56;7.20;;;4.70;;
11228;SDS011;5671;47.936;8.716;2023-05-29T09:29:24;7.37;;;4.67;;
11228;SDS011;5671;47.936;8.716;2023-05-29T09:31:51;6.80;;;4.87;;
11228;SDS011;5671;47.936;8.716;2023-05-29T09:34:18;6.03;;;4.37;;
11228;SDS011;5671;47.936;8.716;2023-05-29T09:36:45;8.30;;;4.63;;
11228;SDS011;5671;47.936;8.716;2023-05-29T09:39:12;8.43;;;4.90;;
11228;SDS011;5671;47.936;8.716;2023-05-29T09:41:42;10.57;;;4.90;;
11228;SDS011;5671;47.936;8.716;2023-05-29T09:44:11;5.73;;;4.60;;
11228;SDS011;5671;47.936;8.716;2023-05-29T09:46:39;6.90;;;4.73;;
11228;SDS011;5671;47.936;8.716;2023-05-29T09:49:08;8.17;;;4.30;;
11228;SDS011;5671;47.936;8.716;2023-05-29T09:51:37;7.53;;;4.60;;
11228;SDS011;5671;47.936;8.716;2023-05-29T09:54:14;6.10;;;4.67;;
11228;SDS011;5671;47.936;8.716;2023-05-29T09:56:49;5.47;;;4.47;;
11228;SDS011;5671;47.936;8.716;2023-05-29T09:59:26;6.30;;;4.73;;
11228;SDS011;5671;47.936;8.716;2023-05-29T10:01:56;8.27;;;4.47;;
11228;SDS011;5671;47.936;8.716;2023-05-29T10:04:27;7.33;;;4.83;;
11228;SDS011;5671;47.936;8.716;2023-05-29T10:06:57;4.93;;;4.00;;
11228;SDS011;5671;47.936;8.716;2023-05-29T10:09:30;9.10;;;4.50;;
11228;SDS011;5671;47.936;8.716;2023-05-29T10:12:01;5.73;;;4.13;;
11228;SDS011;5671;47.936;8.716;2023-05-29T10:14:33;6.67;;;4.33;;
11228;SDS011;5671;47.936;8.716;2023-05-29T10:17:01;5.20;;;4.30;;
11228;SDS011;5671;47.936;8.716;2023-05-29T10:19:33;7.20;;;4.53;;
11228;SDS011;5671;47.936;8.716;2023-05-29T10:22:03;5.13;;;4.33;;
11228;SDS011;5671;47.936;8.716;2023-05-29T10:24:34;5.53;;;3.93;;
11228;SDS011;5671;47.936;8.716;2023-05-29T10:27:04;5.23;;;4.20;;
11228;SDS011;5671;47.936;8.716;2023-05-29T10:29:34;5.17;;;4.23;;
11228;SDS011;5671;47.936;8.716;2023-05-29T10:32:12;7.10;;;4.37;;
11228;SDS011;5671;47.936;8.716;2023-05-29T10:34:48;7.73;;;4.63;;
11228;SDS011;5671;47.936;8.716;2023-05-29T10:37:25;5.53;;;4.20;;
11228;SDS011;5671;47.936;8.716;2023-05-29T10:40:02;6.97;;;4.20;;
11228;SDS011;5671;47.936;8.716;2023-05-29T10:42:44;6.10;;;4.27;;
11228;SDS011;5671;47.936;8.716;2023-05-29T10:51:26;5.07;;;4.20;;
11228;SDS011;5671;47.936;8.716;2023-05-29T10:53:54;7.93;;;4.30;;
11228;SDS011;5671;47.936;8.716;2023-05-29T10:56:22;7.20;;;4.30;;
11228;SDS011;5671;47.936;8.716;2023-05-29T10:58:54;6.50;;;4.33;;
11228;SDS011;5671;47.936;8.716;2023-05-29T11:01:26;5.90;;;4.30;;
11228;SDS011;5671;47.936;8.716;2023-05-29T11:04:24;7.43;;;3.97;;
11228;SDS011;5671;47.936;8.716;2023-05-29T11:07:06;4.67;;;4.00;;
11228;SDS011;5671;47.936;8.716;2023-05-29T11:10:13;8.67;;;3.97;;
11228;SDS011;5671;47.936;8.716;2023-05-29T11:15:23;5.17;;;3.70;;
11228;SDS011;5671;47.936;8.716;2023-05-29T11:17:54;6.43;;;4.50;;
11228;SDS011;5671;47.936;8.716;2023-05-29T11:20:42;5.47;;;3.97;;
11228;SDS011;5671;47.936;8.716;2023-05-29T11:23:29;4.23;;;3.73;;
11228;SDS011;5671;47.936;8.716;2023-05-29T11:25:59;5.17;;;3.40;;
11228;SDS011;5671;47.936;8.716;2023-05-29T11:28:29;4.87;;;3.70;;
11228;SDS011;5671;47.936;8.716;2023-05-29T11:31:23;4.23;;;3.60;;
11228;SDS011;5671;47.936;8.716;2023-05-29T11:34:02;7.17;;;3.53;;
11228;SDS011;5671;47.936;8.716;2023-05-29T11:36:31;7.87;;;3.70;;
11228;SDS011;5671;47.936;8.716;2023-05-29T11:39:01;7.40;;;3.90;;
11228;SDS011;5671;47.936;8.716;2023-05-29T11:41:30;4.87;;;3.77;;
11228;SDS011;5671;47.936;8.716;2023-05-29T11:44:00;4.30;;;3.80;;
11228;SDS011;5671;47.936;8.716;2023-05-29T11:46:33;6.37;;;3.43;;
11228;SDS011;5671;47.936;8.716;2023-05-29T11:49:00;4.13;;;3.10;;
11228;SDS011;5671;47.936;8.716;2023-05-29T11:51:30;4.03;;;3.60;;
11228;SDS011;5671;47.936;8.716;2023-05-29T11:53:57;4.00;;;3.40;;
11228;SDS011;5671;47.936;8.716;2023-05-29T11:56:28;6.37;;;3.47;;
11228;SDS011;5671;47.936;8.716;2023-05-29T11:59:14;4.53;;;3.20;;
11228;SDS011;5671;47.936;8.716;2023-05-29T12:01:48;4.93;;;3.43;;
11228;SDS011;5671;47.936;8.716;2023-05-29T12:04:19;4.50;;;3.77;;
11228;SDS011;5671;47.936;8.716;2023-05-29T12:06:46;5.83;;;3.30;;
11228;SDS011;5671;47.936;8.716;2023-05-29T12:09:26;8.70;;;4.00;;
11228;SDS011;5671;47.936;8.716;2023-05-29T12:12:08;4.80;;;3.37;;
11228;SDS011;5671;47.936;8.716;2023-05-29T12:15:10;3.80;;;3.37;;
11228;SDS011;5671;47.936;8.716;2023-05-29T12:17:38;4.83;;;3.90;;
11228;SDS011;5671;47.936;8.716;2023-05-29T12:20:07;6.13;;;3.57;;
11228;SDS011;5671;47.936;8.716;2023-05-29T12:22:36;4.60;;;3.57;;
11228;SDS011;5671;47.936;8.716;2023-05-29T12:25:18;4.10;;;3.20;;
11228;SDS011;5671;47.936;8.716;2023-05-29T12:27:48;5.77;;;3.00;;
11228;SDS011;5671;47.936;8.716;2023-05-29T12:30:21;6.27;;;2.80;;
11228;SDS011;5671;47.936;8.716;2023-05-29T12:32:49;6.47;;;2.90;;
11228;SDS011;5671;47.936;8.716;2023-05-29T12:35:18;4.23;;;2.90;;
11228;SDS011;5671;47.936;8.716;2023-05-29T12:37:49;6.50;;;3.10;;
11228;SDS011;5671;47.936;8.716;2023-05-29T12:40:20;4.90;;;3.10;;
11228;SDS011;5671;47.936;8.716;2023-05-29T12:42:59;7.97;;;3.20;;
11228;SDS011;5671;47.936;8.716;2023-05-29T12:45:28;6.00;;;3.20;;
11228;SDS011;5671;47.936;8.716;2023-05-29T12:47:59;4.93;;;3.43;;
11228;SDS011;5671;47.936;8.716;2023-05-29T12:50:32;7.03;;;3.33;;
11228;SDS011;5671;47.936;8.716;2023-05-29T12:53:10;4.47;;;3.23;;
11228;SDS011;5671;47.936;8.716;2023-05-29T12:55:44;5.07;;;3.67;;
11228;SDS011;5671;47.936;8.716;2023-05-29T12:58:20;4.97;;;3.30;;
11228;SDS011;5671;47.936;8.716;2023-05-29T13:00:53;4.70;;;3.53;;
11228;SDS011;5671;47.936;8.716;2023-05-29T13:03:21;4.47;;;3.43;;
11228;SDS011;5671;47.936;8.716;2023-05-29T13:05:49;6.67;;;3.37;;
11228;SDS011;5671;47.936;8.716;2023-05-29T13:08:16;3.43;;;2.97;;
11228;SDS011;5671;47.936;8.716;2023-05-29T13:10:43;4.70;;;2.97;;
11228;SDS011;5671;47.936;8.716;2023-05-29T13:13:10;3.93;;;3.00;;
11228;SDS011;5671;47.936;8.716;2023-05-29T13:15:39;5.27;;;3.07;;
11228;SDS011;5671;47.936;8.716;2023-05-29T13:18:06;3.13;;;2.80;;
11228;SDS011;5671;47.936;8.716;2023-05-29T13:20:33;4.20;;;3.00;;
11228;SDS011;5671;47.936;8.716;2023-05-29T13:23:03;3.53;;;2.93;;
11228;SDS011;5671;47.936;8.716;2023-05-29T13:25:30;6.33;;;3.13;;
11228;SDS011;5671;47.936;8.716;2023-05-29T13:27:58;4.20;;;3.30;;
11228;SDS011;5671;47.936;8.716;2023-05-29T13:30:31;3.60;;;3.13;;
11228;SDS011;5671;47.936;8.716;2023-05-29T13:33:13;3.67;;;3.30;;
11228;SDS011;5671;47.936;8.716;2023-05-29T13:35:43;4.57;;;3.27;;
11228;SDS011;5671;47.936;8.716;2023-05-29T13:38:10;5.30;;;2.93;;
11228;SDS011;5671;47.936;8.716;2023-05-29T13:40:41;3.77;;;2.97;;
11228;SDS011;5671;47.936;8.716;2023-05-29T13:43:08;3.53;;;3.20;;
11228;SDS011;5671;47.936;8.716;2023-05-29T13:45:38;3.73;;;3.37;;
11228;SDS011;5671;47.936;8.716;2023-05-29T13:48:05;4.43;;;3.13;;
11228;SDS011;5671;47.936;8.716;2023-05-29T13:50:45;4.73;;;3.90;;
11228;SDS011;5671;47.936;8.716;2023-05-29T13:53:12;7.37;;;3.83;;
11228;SDS011;5671;47.936;8.716;2023-05-29T13:55:40;3.90;;;3.30;;
11228;SDS011;5671;47.936;8.716;2023-05-29T13:58:07;4.60;;;3.30;;
11228;SDS011;5671;47.936;8.716;2023-05-29T14:00:34;5.27;;;3.60;;
11228;SDS011;5671;47.936;8.716;2023-05-29T14:03:13;6.63;;;3.53;;
11228;SDS011;5671;47.936;8.716;2023-05-29T14:06:01;3.73;;;3.40;;
11228;SDS011;5671;47.936;8.716;2023-05-29T14:08:30;4.97;;;3.40;;
11228;SDS011;5671;47.936;8.716;2023-05-29T14:10:57;5.90;;;3.90;;
11228;SDS011;5671;47.936;8.716;2023-05-29T14:13:38;9.73;;;3.30;;
11228;SDS011;5671;47.936;8.716;2023-05-29T14:16:11;3.80;;;3.37;;
11228;SDS011;5671;47.936;8.716;2023-05-29T14:18:40;4.07;;;3.40;;
11228;SDS011;5671;47.936;8.716;2023-05-29T14:21:09;5.83;;;3.23;;
11228;SDS011;5671;47.936;8.716;2023-05-29T14:23:40;4.50;;;3.63;;
11228;SDS011;5671;47.936;8.716;2023-05-29T14:26:07;5.43;;;3.70;;
11228;SDS011;5671;47.936;8.716;2023-05-29T14:28:34;8.93;;;3.63;;
11228;SDS011;5671;47.936;8.716;2023-05-29T14:31:02;3.47;;;3.10;;
11228;SDS011;5671;47.936;8.716;2023-05-29T14:33:31;6.53;;;3.60;;
11228;SDS011;5671;47.936;8.716;2023-05-29T14:35:58;3.50;;;3.20;;
11228;SDS011;5671;47.936;8.716;2023-05-29T14:38:28;5.90;;;3.50;;
11228;SDS011;5671;47.936;8.716;2023-05-29T14:41:04;5.07;;;3.53;;
11228;SDS011;5671;47.936;8.716;2023-05-29T14:44:01;5.43;;;3.50;;
11228;SDS011;5671;47.936;8.716;2023-05-29T14:46:43;3.67;;;3.37;;
11228;SDS011;5671;47.936;8.716;2023-05-29T14:49:15;6.20;;;3.67;;
11228;SDS011;5671;47.936;8.716;2023-05-29T14:51:43;3.63;;;3.30;;
11228;SDS011;5671;47.936;8.716;2023-05-29T14:54:12;5.23;;;4.00;;
11228;SDS011;5671;47.936;8.716;2023-05-29T14:56:57;4.27;;;3.87;;
11228;SDS011;5671;47.936;8.716;2023-05-29T14:59:28;4.97;;;3.87;;
11228;SDS011;5671;47.936;8.716;2023-05-29T15:01:58;4.03;;;3.63;;
11228;SDS011;5671;47.936;8.716;2023-05-29T15:04:33;5.47;;;3.67;;
11228;SDS011;5671;47.936;8.716;2023-05-29T15:07:04;4.10;;;3.60;;
11228;SDS011;5671;47.936;8.716;2023-05-29T15:09:32;5.80;;;4.20;;
11228;SDS011;5671;47.936;8.716;2023-05-29T15:11:59;4.90;;;3.67;;
11228;SDS011;5671;47.936;8.716;2023-05-29T15:14:30;5.13;;;3.50;;
11228;SDS011;5671;47.936;8.716;2023-05-29T15:16:57;6.37;;;3.60;;
11228;SDS011;5671;47.936;8.716;2023-05-29T15:19:25;6.33;;;3.83;;
11228;SDS011;5671;47.936;8.716;2023-05-29T15:21:52;5.37;;;3.90;;
11228;SDS011;5671;47.936;8.716;2023-05-29T15:24:19;5.63;;;4.00;;
11228;SDS011;5671;47.936;8.716;2023-05-29T15:26:47;3.73;;;3.30;;